createdAt,value
2023-04-11T00:01:17.227Z,60.31
2023-04-11T00:03:45.583Z,60.25
2023-04-11T00:06:13.173Z,60.29
2023-04-11T00:08:40.872Z,60.18
2023-04-11T00:11:08.603Z,60.17
2023-04-11T00:13:37.892Z,59.96
2023-04-11T00:16:08.838Z,59.68
2023-04-11T00:18:37.912Z,60.68
2023-04-11T00:21:10.400Z,60.66
2023-04-11T00:23:38.019Z,60.77
2023-04-11T00:26:06.551Z,61.12
2023-04-11T00:28:35.073Z,61.04
2023-04-11T00:31:02.831Z,61.93
2023-04-11T00:33:31.559Z,62.91
2023-04-11T00:36:02.430Z,61.75
2023-04-11T00:38:30.491Z,62.09
2023-04-11T00:40:58.239Z,62.37
2023-04-11T00:43:26.107Z,61.72
2023-04-11T00:45:54.206Z,61.56
2023-04-11T00:48:21.927Z,61.90
2023-04-11T00:50:49.600Z,61.98
2023-04-11T00:53:18.828Z,62.18
2023-04-11T00:55:47.316Z,61.81
2023-04-11T00:58:17.117Z,61.27
2023-04-11T01:00:45.130Z,62.31
2023-04-11T01:03:12.766Z,61.18
2023-04-11T01:05:41.300Z,61.56
2023-04-11T01:08:09.391Z,61.92
2023-04-11T01:10:38.807Z,62.38
2023-04-11T01:13:07.111Z,61.54
2023-04-11T01:15:34.907Z,61.98
2023-04-11T01:18:05.173Z,62.11
2023-04-11T01:20:33.468Z,62.23
2023-04-11T01:23:03.189Z,61.59
2023-04-11T01:25:33.930Z,61.63
2023-04-11T01:28:01.892Z,62.38
2023-04-11T01:30:29.683Z,63.01
2023-04-11T01:32:57.416Z,63.04
2023-04-11T01:35:25.128Z,62.64
2023-04-11T01:37:53.276Z,62.39
2023-04-11T01:40:22.905Z,60.96
2023-04-11T01:42:52.358Z,60.91
2023-04-11T01:45:22.632Z,60.95
2023-04-11T01:47:52.391Z,61.52
2023-04-11T01:50:24.459Z,61.72
2023-04-11T01:52:53.220Z,61.78
2023-04-11T01:55:20.954Z,60.30
2023-04-11T01:57:48.443Z,62.16
2023-04-11T02:00:16.679Z,62.32
2023-04-11T02:02:44.553Z,62.13
2023-04-11T02:05:12.449Z,62.51
2023-04-11T02:07:39.893Z,63.98
2023-04-11T02:10:08.273Z,64.97
2023-04-11T02:12:36.845Z,64.92
2023-04-11T02:15:04.943Z,65.14
2023-04-11T02:17:32.602Z,65.20
2023-04-11T02:20:01.158Z,65.40
2023-04-11T02:22:28.872Z,65.60
2023-04-11T02:24:56.688Z,65.43
2023-04-11T02:27:24.549Z,65.55
2023-04-11T02:29:55.669Z,65.31
2023-04-11T02:32:23.727Z,64.60
2023-04-11T02:34:51.604Z,64.66
2023-04-11T02:37:19.325Z,65.23
2023-04-11T02:39:46.981Z,64.93
2023-04-11T02:42:14.609Z,64.59
2023-04-11T02:44:42.276Z,64.35
2023-04-11T02:47:10.091Z,64.61
2023-04-11T02:49:37.950Z,63.30
2023-04-11T02:52:05.686Z,64.23
2023-04-11T02:54:33.324Z,64.48
2023-04-11T02:57:02.385Z,65.51
2023-04-11T02:59:32.661Z,65.69
2023-04-11T03:02:02.486Z,65.51
2023-04-11T03:04:31.727Z,66.00
2023-04-11T03:07:12.701Z,65.61
2023-04-11T03:09:40.697Z,66.02
2023-04-11T03:12:08.334Z,66.21
2023-04-11T03:14:43.300Z,66.54
2023-04-11T03:17:13.480Z,66.49
2023-04-11T03:19:42.080Z,66.14
2023-04-11T03:22:11.876Z,66.75
2023-04-11T03:24:40.409Z,66.21
2023-04-11T03:27:08.834Z,66.16
2023-04-11T03:29:39.376Z,65.56
2023-04-11T03:32:13.782Z,65.09
2023-04-11T03:34:41.448Z,65.47
2023-04-11T03:37:11.057Z,65.58
2023-04-11T03:39:39.712Z,65.64
2023-04-11T03:42:08.000Z,65.11
2023-04-11T03:44:36.219Z,64.45
2023-04-11T03:47:03.967Z,64.23
2023-04-11T03:49:38.446Z,64.47
2023-04-11T03:52:07.475Z,64.28
2023-04-11T03:54:35.121Z,64.00
2023-04-11T03:57:02.773Z,63.85
2023-04-11T03:59:33.592Z,64.49
2023-04-11T04:02:07.052Z,63.90
2023-04-11T04:04:38.568Z,63.89
2023-04-11T04:07:29.317Z,64.65
2023-04-11T04:10:10.955Z,65.08
2023-04-11T04:12:40.621Z,64.22
2023-04-11T04:15:16.467Z,64.16
2023-04-11T04:17:47.224Z,64.59
2023-04-11T04:20:47.577Z,64.34
2023-04-11T04:23:18.338Z,62.60
2023-04-11T04:26:09.304Z,63.56
2023-04-11T04:28:37.685Z,63.18
2023-04-11T04:31:05.881Z,63.90
2023-04-11T04:33:42.781Z,64.33
2023-04-11T04:36:18.003Z,63.98
2023-04-11T04:38:48.023Z,64.09
2023-04-11T04:41:22.291Z,64.43
2023-04-11T04:43:59.008Z,65.04
2023-04-11T04:46:41.664Z,64.92
2023-04-11T04:49:09.676Z,65.21
2023-04-11T04:51:38.675Z,65.32
2023-04-11T04:54:06.830Z,65.84
2023-04-11T04:56:34.616Z,66.08
2023-04-11T04:59:05.526Z,66.60
2023-04-11T05:01:35.408Z,67.05
2023-04-11T05:04:05.982Z,66.11
2023-04-11T05:06:59.149Z,66.24
2023-04-11T05:09:29.053Z,66.38
2023-04-11T05:12:07.876Z,67.71
2023-04-11T05:14:38.059Z,67.62
2023-04-11T05:17:06.074Z,66.84
2023-04-11T05:19:33.922Z,67.49
2023-04-11T05:22:01.848Z,67.15
2023-04-11T05:24:30.536Z,67.17
2023-04-11T05:27:00.606Z,66.84
2023-04-11T05:29:30.073Z,66.66
2023-04-11T05:31:59.899Z,66.30
2023-04-11T05:34:32.151Z,66.18
2023-04-11T05:36:59.876Z,66.06
2023-04-11T05:39:46.386Z,66.35
2023-04-11T05:42:17.461Z,64.64
2023-04-11T05:44:45.112Z,63.98
2023-04-11T05:47:12.733Z,64.50
2023-04-11T05:49:40.278Z,64.64
2023-04-11T05:52:07.787Z,64.23
2023-04-11T05:54:36.868Z,63.39
2023-04-11T05:57:04.482Z,63.10
2023-04-11T05:59:32.729Z,63.08
2023-04-11T06:02:01.029Z,63.26
2023-04-11T06:04:28.881Z,60.71
2023-04-11T06:06:56.933Z,59.38
2023-04-11T06:09:24.581Z,61.74
2023-04-11T06:11:52.454Z,61.45
2023-04-11T06:14:20.057Z,61.12
2023-04-11T06:16:47.865Z,60.30
2023-04-11T06:19:15.491Z,60.99
2023-04-11T06:21:43.117Z,59.14
2023-04-11T06:24:11.385Z,57.22
2023-04-11T06:26:39.007Z,57.03
2023-04-11T06:29:08.143Z,56.13
2023-04-11T06:31:36.372Z,56.75
2023-04-11T06:34:04.127Z,55.92
2023-04-11T06:36:34.222Z,56.59
2023-04-11T06:39:01.896Z,57.55
2023-04-11T06:41:29.645Z,58.17
2023-04-11T06:43:57.592Z,57.89
2023-04-11T06:46:25.657Z,55.71
2023-04-11T06:48:53.545Z,55.19
2023-04-11T06:51:21.659Z,55.02
2023-04-11T06:53:49.903Z,52.63
2023-04-11T06:56:17.717Z,51.92
2023-04-11T06:58:45.439Z,50.19
2023-04-11T07:01:14.401Z,48.90
2023-04-11T07:03:42.514Z,49.12
2023-04-11T07:06:10.767Z,50.53
2023-04-11T07:08:38.613Z,49.96
2023-04-11T07:11:06.610Z,49.22
2023-04-11T07:13:37.150Z,48.22
2023-04-11T07:16:05.362Z,46.64
2023-04-11T07:18:33.111Z,46.47
2023-04-11T07:21:00.945Z,45.24
2023-04-11T07:23:28.904Z,46.42
2023-04-11T07:25:56.626Z,45.91
2023-04-11T07:28:25.260Z,46.66
2023-04-11T07:30:53.061Z,46.51
2023-04-11T07:33:21.478Z,48.05
2023-04-11T07:35:50.436Z,46.93
2023-04-11T07:38:27.450Z,48.08
2023-04-11T07:41:00.872Z,48.05
2023-04-11T07:43:29.125Z,46.19
2023-04-11T07:45:57.774Z,45.95
2023-04-11T07:48:27.420Z,44.98
2023-04-11T07:50:55.803Z,44.72
2023-04-11T07:53:23.650Z,44.28
2023-04-11T07:55:51.335Z,44.14
2023-04-11T07:58:19.001Z,43.93
2023-04-11T08:00:47.801Z,43.34
2023-04-11T08:03:17.105Z,43.55
2023-04-11T08:05:45.595Z,43.05
2023-04-11T08:08:13.979Z,42.65
2023-04-11T08:10:42.248Z,42.33
2023-04-11T08:13:10.403Z,41.42
2023-04-11T08:15:39.082Z,41.55
2023-04-11T08:18:07.479Z,41.49
2023-04-11T08:20:36.588Z,41.66
2023-04-11T08:23:09.130Z,41.50
2023-04-11T08:25:37.021Z,41.74
2023-04-11T08:28:06.712Z,40.75
2023-04-11T08:30:34.429Z,41.02
2023-04-11T08:33:02.263Z,40.75
2023-04-11T08:35:30.177Z,41.34
2023-04-11T08:37:58.140Z,41.18
2023-04-11T08:40:27.144Z,40.06
2023-04-11T08:43:01.601Z,39.57
2023-04-11T08:45:29.634Z,40.00
2023-04-11T08:47:57.332Z,38.94
2023-04-11T08:50:26.347Z,38.23
2023-04-11T08:53:00.779Z,38.56
2023-04-11T08:55:29.433Z,39.40
2023-04-11T08:58:04.248Z,38.91
2023-04-11T09:00:34.649Z,38.97
2023-04-11T09:03:05.639Z,38.73
2023-04-11T09:05:36.230Z,38.16
2023-04-11T09:08:06.824Z,37.89
2023-04-11T09:10:35.778Z,38.36
2023-04-11T09:13:25.769Z,37.78
2023-04-11T09:16:07.407Z,38.66
2023-04-11T09:18:37.388Z,38.65
2023-04-11T09:21:10.981Z,38.73
2023-04-11T09:23:39.029Z,39.57
2023-04-11T09:26:08.551Z,38.90
2023-04-11T09:28:54.036Z,39.23
2023-04-11T09:31:22.452Z,38.06
2023-04-11T09:33:59.157Z,38.79
2023-04-11T09:36:30.505Z,39.28
2023-04-11T09:39:17.136Z,39.09
2023-04-11T09:41:46.152Z,38.39
2023-04-11T09:44:14.160Z,37.67
2023-04-11T09:46:59.507Z,38.06
2023-04-11T09:49:29.094Z,38.28
2023-04-11T09:51:58.245Z,39.31
2023-04-11T09:54:28.440Z,38.14
2023-04-11T09:56:58.743Z,38.02
2023-04-11T09:59:30.277Z,37.87
2023-04-11T10:01:58.907Z,37.66
2023-04-11T10:04:28.236Z,37.51
2023-04-11T10:07:12.818Z,37.10
2023-04-11T10:09:43.282Z,36.80
2023-04-11T10:12:11.707Z,36.96
2023-04-11T10:14:39.454Z,36.62
2023-04-11T10:17:23.059Z,35.51
2023-04-11T10:19:57.125Z,35.66
2023-04-11T10:22:51.571Z,35.07
2023-04-11T10:25:24.940Z,35.18
2023-04-11T10:27:54.250Z,35.89
2023-04-11T10:30:43.228Z,36.75
2023-04-11T10:33:16.375Z,37.62
2023-04-11T10:36:06.126Z,37.46
2023-04-11T10:38:36.954Z,36.91
2023-04-11T10:41:23.269Z,37.26
2023-04-11T10:43:52.335Z,36.19
2023-04-11T10:46:23.814Z,36.37
2023-04-11T10:49:02.027Z,35.58
2023-04-11T10:51:35.019Z,35.63
2023-04-11T10:54:03.307Z,35.91
2023-04-11T10:56:44.428Z,36.14
2023-04-11T10:59:36.545Z,36.34
2023-04-11T11:02:04.435Z,36.29
2023-04-11T11:04:32.868Z,36.56
2023-04-11T11:07:05.395Z,36.84
2023-04-11T11:09:34.627Z,37.03
2023-04-11T11:12:13.156Z,36.96
2023-04-11T11:14:43.855Z,37.14
2023-04-11T11:17:14.387Z,37.28
2023-04-11T11:19:46.587Z,37.33
2023-04-11T11:22:15.454Z,37.15
2023-04-11T11:24:43.392Z,36.78
2023-04-11T11:27:24.928Z,36.54
2023-04-11T11:29:53.435Z,36.91
2023-04-11T11:32:25.454Z,37.12
2023-04-11T11:34:53.524Z,37.03
2023-04-11T11:37:24.233Z,37.01
2023-04-11T11:39:51.951Z,37.44
2023-04-11T11:42:19.981Z,37.20
2023-04-11T11:44:47.941Z,37.32
2023-04-11T11:47:15.880Z,38.02
2023-04-11T11:49:54.837Z,38.25
2023-04-11T11:52:43.651Z,38.54
2023-04-11T11:55:22.464Z,37.60
2023-04-11T11:57:50.915Z,37.69
2023-04-11T12:00:27.172Z,37.56
2023-04-11T12:02:57.907Z,38.29
2023-04-11T12:05:30.905Z,38.33
2023-04-11T12:08:01.223Z,37.48
2023-04-11T12:10:40.444Z,37.46
2023-04-11T12:13:25.666Z,37.67
2023-04-11T12:15:56.484Z,37.75
2023-04-11T12:18:26.782Z,38.21
2023-04-11T12:20:55.118Z,37.12
2023-04-11T12:23:23.146Z,37.25
2023-04-11T12:25:51.248Z,37.27
2023-04-11T12:28:19.161Z,36.80
2023-04-11T12:30:47.154Z,37.69
2023-04-11T12:33:15.002Z,37.80
2023-04-11T12:35:42.590Z,37.84
2023-04-11T12:38:13.290Z,37.49
2023-04-11T12:40:42.915Z,37.86
2023-04-11T12:43:10.918Z,38.55
2023-04-11T12:45:39.264Z,38.30
2023-04-11T12:48:08.403Z,38.70
2023-04-11T12:50:36.017Z,38.40
2023-04-11T12:53:04.113Z,38.02
2023-04-11T12:55:32.137Z,38.15
2023-04-11T12:58:01.792Z,38.39
2023-04-11T13:00:32.528Z,38.83
2023-04-11T13:03:01.338Z,39.09
2023-04-11T13:05:29.421Z,38.82
2023-04-11T13:07:57.356Z,39.47
2023-04-11T13:10:25.602Z,40.71
2023-04-11T13:12:58.628Z,40.05
2023-04-11T13:15:28.528Z,40.36
2023-04-11T13:17:59.290Z,40.47
2023-04-11T13:20:27.230Z,40.92
2023-04-11T13:22:55.074Z,41.23
2023-04-11T13:25:25.114Z,41.59
2023-04-11T13:27:53.524Z,41.19
2023-04-11T13:30:21.993Z,41.32
2023-04-11T13:32:49.922Z,41.88
2023-04-11T13:35:18.305Z,41.85
2023-04-11T13:37:46.643Z,42.44
2023-04-11T13:40:15.476Z,42.28
2023-04-11T13:42:43.516Z,42.54
2023-04-11T13:45:15.194Z,42.91
2023-04-11T13:47:47.588Z,42.85
2023-04-11T13:50:15.750Z,42.95
2023-04-11T13:52:43.730Z,42.71
2023-04-11T13:55:11.489Z,43.40
2023-04-11T13:57:39.148Z,43.39
2023-04-11T14:00:13.378Z,44.11
2023-04-11T14:02:42.654Z,43.42
2023-04-11T14:05:11.748Z,43.97
2023-04-11T14:07:41.682Z,43.86
2023-04-11T14:10:11.382Z,44.36
2023-04-11T14:12:39.482Z,44.06
2023-04-11T14:15:08.169Z,43.69
2023-04-11T14:17:35.953Z,43.73
2023-04-11T14:20:08.001Z,44.95
2023-04-11T14:22:36.257Z,44.65
2023-04-11T14:25:05.762Z,44.76
2023-04-11T14:27:33.501Z,44.60
2023-04-11T14:30:01.500Z,44.40
2023-04-11T14:32:29.276Z,45.13
2023-04-11T14:34:57.010Z,46.29
2023-04-11T14:37:25.112Z,46.38
2023-04-11T14:39:53.376Z,46.89
2023-04-11T14:42:20.911Z,46.57
2023-04-11T14:44:50.244Z,45.67
2023-04-11T14:47:17.932Z,46.09
2023-04-11T14:49:45.837Z,46.23
2023-04-11T14:52:13.608Z,45.35
2023-04-11T14:54:41.645Z,46.80
2023-04-11T14:57:10.272Z,46.88
2023-04-11T14:59:37.817Z,45.34
2023-04-11T15:02:06.664Z,45.68
2023-04-11T15:04:34.848Z,46.00
2023-04-11T15:07:03.242Z,45.02
2023-04-11T15:09:31.551Z,45.94
2023-04-11T15:12:01.256Z,46.65
2023-04-11T15:14:31.708Z,45.92
2023-04-11T15:16:59.672Z,45.70
2023-04-11T15:19:30.460Z,46.64
2023-04-11T15:21:58.307Z,46.16
2023-04-11T15:24:26.157Z,46.60
2023-04-11T15:26:54.193Z,47.01
2023-04-11T15:29:22.114Z,47.47
2023-04-11T15:31:50.234Z,47.74
2023-04-11T15:34:18.180Z,47.86
2023-04-11T15:36:47.223Z,47.52
2023-04-11T15:39:16.049Z,47.75
2023-04-11T15:41:43.796Z,48.88
2023-04-11T15:44:12.031Z,48.46
2023-04-11T15:46:39.931Z,48.20
2023-04-11T15:49:09.825Z,48.81
2023-04-11T15:51:38.704Z,49.25
2023-04-11T15:54:07.610Z,49.22
2023-04-11T15:56:35.554Z,49.32
2023-04-11T15:59:03.416Z,49.32
2023-04-11T16:01:32.027Z,48.84
2023-04-11T16:04:00.048Z,49.10
2023-04-11T16:06:32.165Z,49.68
2023-04-11T16:09:00.444Z,50.05
2023-04-11T16:11:28.098Z,49.77
2023-04-11T16:13:57.222Z,50.10
2023-04-11T16:16:28.298Z,49.56
2023-04-11T16:18:56.812Z,49.13
2023-04-11T16:21:27.691Z,48.38
2023-04-11T16:23:56.646Z,49.21
2023-04-11T16:26:27.230Z,50.09
2023-04-11T16:28:54.977Z,49.89
2023-04-11T16:31:25.172Z,49.86
2023-04-11T16:33:53.885Z,49.82
2023-04-11T16:36:23.706Z,48.86
2023-04-11T16:38:51.869Z,49.68
2023-04-11T16:41:21.042Z,49.36
2023-04-11T16:43:49.278Z,49.80
2023-04-11T16:46:17.506Z,50.11
2023-04-11T16:48:45.957Z,49.54
2023-04-11T16:51:15.273Z,50.71
2023-04-11T16:53:43.640Z,50.38
2023-04-11T16:56:12.571Z,50.93
2023-04-11T16:58:46.569Z,50.59
2023-04-11T17:01:14.489Z,50.74
2023-04-11T17:03:46.029Z,51.95
2023-04-11T17:06:16.261Z,52.25
2023-04-11T17:08:47.316Z,52.73
2023-04-11T17:11:15.436Z,52.89
2023-04-11T17:13:46.589Z,52.27
2023-04-11T17:16:15.764Z,52.60
2023-04-11T17:18:44.057Z,52.37
2023-04-11T17:21:12.052Z,52.21
2023-04-11T17:23:56.594Z,52.09
2023-04-11T17:26:24.976Z,52.22
2023-04-11T17:28:54.340Z,52.45
2023-04-11T17:31:23.087Z,52.23
2023-04-11T17:33:51.552Z,52.11
2023-04-11T17:36:19.455Z,52.42
2023-04-11T17:38:48.605Z,53.45
2023-04-11T17:41:17.060Z,53.37
2023-04-11T17:43:45.650Z,53.14
2023-04-11T17:46:14.123Z,53.74
2023-04-11T17:48:42.232Z,53.58
2023-04-11T17:51:13.548Z,54.45
2023-04-11T17:53:42.179Z,54.53
2023-04-11T17:56:09.866Z,55.04
2023-04-11T17:58:47.388Z,55.00
2023-04-11T18:01:15.911Z,54.80
2023-04-11T18:03:47.846Z,55.54
2023-04-11T18:06:15.990Z,56.45
2023-04-11T18:08:50.912Z,56.91
2023-04-11T18:11:20.415Z,56.51
2023-04-11T18:13:50.366Z,56.83
2023-04-11T18:16:18.719Z,56.51
2023-04-11T18:18:49.596Z,56.77
2023-04-11T18:21:22.319Z,57.53
2023-04-11T18:23:50.245Z,57.71
2023-04-11T18:26:18.424Z,57.13
2023-04-11T18:28:46.455Z,57.72
2023-04-11T18:31:14.782Z,58.42
2023-04-11T18:33:46.672Z,58.57
2023-04-11T18:36:15.593Z,58.06
2023-04-11T18:38:44.394Z,59.03
2023-04-11T18:41:12.260Z,59.58
2023-04-11T18:43:40.794Z,58.55
2023-04-11T18:46:09.725Z,59.21
2023-04-11T18:48:38.209Z,58.24
2023-04-11T18:51:06.790Z,57.87
2023-04-11T18:53:36.947Z,58.39
2023-04-11T18:56:05.394Z,58.80
2023-04-11T18:58:39.715Z,59.13
2023-04-11T19:01:15.451Z,58.97
2023-04-11T19:03:46.923Z,58.88
2023-04-11T19:06:15.968Z,58.65
2023-04-11T19:08:44.459Z,57.23
2023-04-11T19:11:13.137Z,57.57
2023-04-11T19:13:41.876Z,57.00
2023-04-11T19:16:10.394Z,58.67
2023-04-11T19:18:42.053Z,59.05
2023-04-11T19:21:10.119Z,59.47
2023-04-11T19:23:38.514Z,60.57
2023-04-11T19:26:08.252Z,60.31
2023-04-11T19:28:39.187Z,60.62
2023-04-11T19:31:07.997Z,61.18
2023-04-11T19:33:36.739Z,61.17
2023-04-11T19:36:06.434Z,61.35
2023-04-11T19:38:39.224Z,61.92
2023-04-11T19:41:17.605Z,61.67
2023-04-11T19:43:48.932Z,61.81
2023-04-11T19:46:18.424Z,61.49
2023-04-11T19:48:49.726Z,62.21
2023-04-11T19:51:18.413Z,61.36
2023-04-11T19:53:48.789Z,61.51
2023-04-11T19:56:19.624Z,61.25
2023-04-11T19:58:47.783Z,61.43
2023-04-11T20:01:17.281Z,61.16
2023-04-11T20:03:46.551Z,61.60
2023-04-11T20:06:18.972Z,60.99
2023-04-11T20:08:47.651Z,60.50
2023-04-11T20:11:16.131Z,60.22
2023-04-11T20:13:44.340Z,59.97
2023-04-11T20:16:19.153Z,58.83
2023-04-11T20:18:49.921Z,59.24
2023-04-11T20:21:18.069Z,59.28
2023-04-11T20:23:45.967Z,58.53
2023-04-11T20:26:13.886Z,57.89
2023-04-11T20:28:44.765Z,57.39
2023-04-11T20:31:12.908Z,56.52
2023-04-11T20:33:45.486Z,56.18
2023-04-11T20:36:14.965Z,54.85
2023-04-11T20:38:43.394Z,54.29
2023-04-11T20:41:13.713Z,53.32
2023-04-11T20:43:42.318Z,52.71
2023-04-11T20:46:13.769Z,52.36
2023-04-11T20:48:43.179Z,51.93
2023-04-11T20:51:11.550Z,51.51
2023-04-11T20:53:39.401Z,51.54
2023-04-11T20:56:11.767Z,51.59
2023-04-11T20:58:43.030Z,51.52
2023-04-11T21:01:10.822Z,51.86
2023-04-11T21:03:42.579Z,51.42
2023-04-11T21:06:10.924Z,52.73
2023-04-11T21:08:40.107Z,52.80
2023-04-11T21:11:10.628Z,52.55
2023-04-11T21:13:38.731Z,52.25
2023-04-11T21:16:06.918Z,52.56
2023-04-11T21:18:36.233Z,52.46
2023-04-11T21:21:07.951Z,52.34
2023-04-11T21:23:36.233Z,52.42
2023-04-11T21:26:04.775Z,52.11
2023-04-11T21:28:32.970Z,52.66
2023-04-11T21:31:01.759Z,52.41
2023-04-11T21:33:29.743Z,52.61
2023-04-11T21:35:57.961Z,53.86
2023-04-11T21:38:25.843Z,53.75
2023-04-11T21:40:53.893Z,52.98
2023-04-11T21:43:21.498Z,52.18
2023-04-11T21:45:49.794Z,51.79
2023-04-11T21:48:17.465Z,53.06
2023-04-11T21:50:46.048Z,52.70
2023-04-11T21:53:14.500Z,53.57
2023-04-11T21:55:46.943Z,53.29
2023-04-11T21:58:28.685Z,53.03
2023-04-11T22:01:03.799Z,52.61
2023-04-11T22:03:32.884Z,52.38
2023-04-11T22:06:00.993Z,52.60
2023-04-11T22:08:29.557Z,52.01
2023-04-11T22:10:57.445Z,51.97
2023-04-11T22:13:29.400Z,52.17
2023-04-11T22:16:05.623Z,51.88
2023-04-11T22:18:47.942Z,52.45
2023-04-11T22:21:20.147Z,52.48
2023-04-11T22:23:55.124Z,53.75
2023-04-11T22:26:29.520Z,53.01
2023-04-11T22:28:58.801Z,53.40
2023-04-11T22:31:30.921Z,53.50
2023-04-11T22:33:59.401Z,53.83
2023-04-11T22:36:28.606Z,53.32
2023-04-11T22:38:56.708Z,53.32
2023-04-11T22:41:26.022Z,52.41
2023-04-11T22:43:53.886Z,52.15
2023-04-11T22:46:23.258Z,52.82
2023-04-11T22:48:52.990Z,52.15
2023-04-11T22:51:22.208Z,52.36
2023-04-11T22:53:50.116Z,51.66
2023-04-11T22:56:17.858Z,51.94
2023-04-11T22:58:46.048Z,51.66
2023-04-11T23:01:16.118Z,51.53
2023-04-11T23:03:44.289Z,51.57
2023-04-11T23:06:11.939Z,52.14
2023-04-11T23:08:39.582Z,51.10
2023-04-11T23:11:07.641Z,51.01
2023-04-11T23:13:36.003Z,50.20
2023-04-11T23:16:04.165Z,49.92
2023-04-11T23:18:31.895Z,51.38
2023-04-11T23:21:00.150Z,51.25
2023-04-11T23:23:28.062Z,51.08
2023-04-11T23:25:55.684Z,49.84
2023-04-11T23:28:26.348Z,50.38
2023-04-11T23:30:55.215Z,50.06
2023-04-11T23:33:25.753Z,50.42
2023-04-11T23:35:53.650Z,50.93
2023-04-11T23:38:21.588Z,51.25
2023-04-11T23:40:49.500Z,50.65
2023-04-11T23:43:17.290Z,51.60
2023-04-11T23:45:45.134Z,50.49
2023-04-11T23:48:12.864Z,50.10
2023-04-11T23:50:41.274Z,50.88
2023-04-11T23:53:09.409Z,50.95
2023-04-11T23:55:37.339Z,51.36
2023-04-11T23:58:05.339Z,51.26
